Hjorring, Denmark
Current Conditions -  °F | °C
As of 11:50 PM on Thursday 20 Nov 2014 (Local Time) from EKYT Reporting Station
Broken Clouds Broken Clouds  
Wind Chill: 39°   Ceiling: 4200
Heat Index: 39°   Visibility: 6mi
Dew Point: 37°   Wind: 3mph
Humidity: 93%   Direction: 340°NNW
Pressure: 30.39"   Gusts: NA
Location:  57.46°N, 9.98°E
Report Text: EKYT 202250Z 34003KT 9999 FEW027 BKN042 04/03 Q1029
Loading
Personal Weather Stations






























Interactive Weather Map New forecast layout! Learn more

10-Day Weather Forecast

Advertisements
Track Severe Weather on mobile